Time;durP1;ratioP1;P1;durP2;ratioP2;P2;SDS_P1;SDS_P2;PMS_P1;PMS_P2;Temp;Humidity;BMP_temperature;BMP_pressure;BME280_temperature;BME280_humidity;BME280_pressure;Samples;Min_cycle;Max_cycle;Signal;HPM_P1;HPM_P2
2023/05/26 00:00:14;;;;;;;;;;;18.70;64.80;;;;;;5051507;27;87117;-41
2023/05/26 00:02:40;;;;;;;;;;;18.60;64.80;;;;;;5053970;27;89002;-41
2023/05/26 00:05:06;;;;;;;;;;;18.70;64.80;;;;;;5055316;27;87425;-42
2023/05/26 00:07:32;;;;;;;;;;;18.70;64.70;;;;;;5053534;27;88211;-41
2023/05/26 00:09:58;;;;;;;;;;;18.70;64.70;;;;;;5049807;27;88229;-40
2023/05/26 00:12:23;;;;;;;;;;;18.60;64.80;;;;;;5052023;27;88131;-42
2023/05/26 00:14:49;;;;;;;;;;;18.60;64.80;;;;;;5052937;27;88359;-42
2023/05/26 00:17:16;;;;;;;;;;;18.60;64.80;;;;;;5052729;27;88108;-41
2023/05/26 00:19:42;;;;;;;;;;;18.60;64.80;;;;;;5052625;27;87112;-41
2023/05/26 00:22:07;;;;;;;;;;;18.60;64.80;;;;;;5053043;27;87471;-42
2023/05/26 00:24:33;;;;;;;;;;;18.60;64.80;;;;;;5049674;27;88167;-40
2023/05/26 00:26:58;;;;;;;;;;;18.50;64.90;;;;;;5053974;27;87145;-40
2023/05/26 00:29:24;;;;;;;;;;;18.50;64.80;;;;;;5052962;27;86673;-40
2023/05/26 00:31:49;;;;;;;;;;;18.50;64.70;;;;;;5050241;27;87019;-41
2023/05/26 00:34:15;;;;;;;;;;;18.50;64.80;;;;;;5053246;27;87955;-42
2023/05/26 00:36:42;;;;;;;;;;;18.50;64.70;;;;;;5048709;27;89127;-41
2023/05/26 00:39:07;;;;;;;;;;;18.50;64.70;;;;;;5053188;27;87112;-40
2023/05/26 00:41:33;;;;;;;;;;;18.50;64.70;;;;;;5045935;27;88613;-40
2023/05/26 00:43:58;;;;;;;;;;;18.40;64.80;;;;;;5049416;27;87074;-42
2023/05/26 00:46:24;;;;;;;;;;;18.40;64.80;;;;;;5053195;27;87361;-41
2023/05/26 00:48:50;;;;;;;;;;;18.40;64.80;;;;;;5052976;27;87099;-40
2023/05/26 00:51:16;;;;;;;;;;;18.40;64.80;;;;;;5052446;27;87586;-40
2023/05/26 00:53:43;;;;;;;;;;;18.40;64.90;;;;;;5050988;27;87157;-42
2023/05/26 00:56:14;;;;;;;;;;;18.40;64.80;;;;;;5046172;27;89393;-40
2023/05/26 00:58:39;;;;;;;;;;;18.40;64.80;;;;;;5053471;27;87585;-41
2023/05/26 01:01:05;;;;;;;;;;;18.40;64.80;;;;;;5050615;27;88024;-41
2023/05/26 01:03:31;;;;;;;;;;;18.30;64.80;;;;;;5052367;27;89354;-41
2023/05/26 01:05:56;;;;;;;;;;;18.40;64.80;;;;;;5051474;27;87076;-42
2023/05/26 01:08:22;;;;;;;;;;;18.30;64.70;;;;;;5054946;27;87415;-40
2023/05/26 01:10:47;;;;;;;;;;;18.30;64.70;;;;;;5049092;27;88146;-41
2023/05/26 01:13:15;;;;;;;;;;;18.30;64.70;;;;;;5052260;27;86927;-41
2023/05/26 01:15:53;;;;;;;;;;;18.20;64.70;;;;;;5051776;27;88006;-41
2023/05/26 01:18:28;;;;;;;;;;;18.30;64.80;;;;;;5051095;27;86430;-40
2023/05/26 01:20:59;;;;;;;;;;;18.30;64.80;;;;;;5046495;27;87200;-42
2023/05/26 01:23:43;;;;;;;;;;;18.20;64.70;;;;;;5052185;27;88005;-40
2023/05/26 01:26:27;;;;;;;;;;;18.20;64.70;;;;;;5051213;27;88242;-41
2023/05/26 01:28:56;;;;;;;;;;;18.20;64.70;;;;;;5049217;27;88292;-42
2023/05/26 01:31:22;;;;;;;;;;;18.20;64.90;;;;;;5054015;27;87954;-41
2023/05/26 01:33:47;;;;;;;;;;;18.20;64.90;;;;;;5051433;27;87526;-42
2023/05/26 01:36:13;;;;;;;;;;;18.20;64.80;;;;;;5052163;27;88095;-42
2023/05/26 01:38:41;;;;;;;;;;;18.10;64.80;;;;;;5032222;27;87081;-42
2023/05/26 01:41:24;;;;;;;;;;;18.10;64.70;;;;;;5048849;27;87518;-41
2023/05/26 01:43:58;;;;;;;;;;;18.10;65.00;;;;;;5050117;27;88550;-41
2023/05/26 01:46:35;;;;;;;;;;;18.10;64.80;;;;;;5046042;27;87114;-40
2023/05/26 01:49:02;;;;;;;;;;;18.10;64.80;;;;;;5052323;27;87004;-41
2023/05/26 01:51:32;;;;;;;;;;;18.10;64.80;;;;;;5050115;27;88534;-39
2023/05/26 01:53:59;;;;;;;;;;;18.10;64.80;;;;;;5054466;27;87165;-41
2023/05/26 01:56:25;;;;;;;;;;;18.10;64.90;;;;;;5048184;27;88197;-41
2023/05/26 01:58:51;;;;;;;;;;;18.10;64.70;;;;;;5055252;27;87429;-40
2023/05/26 02:01:17;;;;;;;;;;;18.10;64.80;;;;;;5054688;27;87361;-40
2023/05/26 02:03:42;;;;;;;;;;;18.00;64.70;;;;;;5055361;27;88086;-41
2023/05/26 02:06:08;;;;;;;;;;;18.00;64.70;;;;;;5053824;27;87124;-42
2023/05/26 02:08:35;;;;;;;;;;;18.00;64.70;;;;;;5056105;27;88676;-41
2023/05/26 02:11:01;;;;;;;;;;;18.00;64.70;;;;;;5051789;27;89493;-41
2023/05/26 02:13:27;;;;;;;;;;;18.00;64.80;;;;;;5050122;27;87087;-42
2023/05/26 02:15:52;;;;;;;;;;;18.00;64.80;;;;;;5058500;27;88668;-41
2023/05/26 02:18:21;;;;;;;;;;;17.90;64.70;;;;;;5052955;27;87049;-41
2023/05/26 02:20:46;;;;;;;;;;;17.90;64.70;;;;;;5056074;27;89013;-40
2023/05/26 02:23:12;;;;;;;;;;;17.90;64.80;;;;;;5052560;27;88072;-41
2023/05/26 02:25:38;;;;;;;;;;;17.90;64.70;;;;;;5048441;27;87171;-40
2023/05/26 02:28:03;;;;;;;;;;;17.90;64.70;;;;;;5054753;27;87490;-41
2023/05/26 02:30:29;;;;;;;;;;;17.90;64.70;;;;;;5052580;27;89394;-40
2023/05/26 02:32:54;;;;;;;;;;;17.90;64.60;;;;;;5056325;27;86573;-40
2023/05/26 02:35:20;;;;;;;;;;;17.80;64.70;;;;;;5053631;27;87059;-40
2023/05/26 02:37:47;;;;;;;;;;;17.80;64.70;;;;;;5057903;27;88349;-41
2023/05/26 02:40:12;;;;;;;;;;;17.80;64.70;;;;;;5052991;27;88380;-41
2023/05/26 02:42:38;;;;;;;;;;;17.80;64.70;;;;;;5051247;27;88029;-41
2023/05/26 02:45:04;;;;;;;;;;;17.80;64.70;;;;;;5054850;27;87338;-40
2023/05/26 02:47:29;;;;;;;;;;;17.80;64.60;;;;;;5054081;27;89276;-41
2023/05/26 02:49:55;;;;;;;;;;;17.70;64.60;;;;;;5053429;27;89600;-40
2023/05/26 02:52:22;;;;;;;;;;;17.70;64.70;;;;;;5054527;27;87258;-40
2023/05/26 02:54:48;;;;;;;;;;;17.70;64.70;;;;;;5053624;27;87092;-40
2023/05/26 02:57:13;;;;;;;;;;;17.70;64.60;;;;;;5048208;27;87190;-42
2023/05/26 02:59:39;;;;;;;;;;;17.70;64.60;;;;;;5057754;27;87095;-41
2023/05/26 03:02:04;;;;;;;;;;;17.70;64.70;;;;;;5052731;27;88059;-41
2023/05/26 03:04:30;;;;;;;;;;;17.60;64.70;;;;;;5054796;27;88023;-42
2023/05/26 03:06:55;;;;;;;;;;;17.70;64.60;;;;;;5046986;27;88489;-41
2023/05/26 03:09:21;;;;;;;;;;;17.70;64.80;;;;;;5049525;27;90021;-41
2023/05/26 03:11:46;;;;;;;;;;;17.70;64.60;;;;;;5045368;27;89335;-40
2023/05/26 03:14:12;;;;;;;;;;;17.60;64.60;;;;;;5051822;27;87418;-41
2023/05/26 03:16:37;;;;;;;;;;;17.60;64.60;;;;;;5054817;27;88111;-42
2023/05/26 03:19:03;;;;;;;;;;;17.60;64.60;;;;;;5052562;27;88400;-41
2023/05/26 03:21:29;;;;;;;;;;;17.60;64.60;;;;;;5043932;27;87305;-40
2023/05/26 03:23:55;;;;;;;;;;;17.60;64.50;;;;;;5050407;27;86938;-40
2023/05/26 03:26:21;;;;;;;;;;;17.60;64.50;;;;;;5052551;27;88225;-41
2023/05/26 03:28:47;;;;;;;;;;;17.50;64.50;;;;;;5045473;27;90358;-41
2023/05/26 03:31:12;;;;;;;;;;;17.50;64.60;;;;;;5040158;27;87180;-42
2023/05/26 03:33:38;;;;;;;;;;;17.50;64.60;;;;;;5053645;27;87476;-40
2023/05/26 03:36:03;;;;;;;;;;;17.50;64.60;;;;;;5051249;27;89792;-42
2023/05/26 03:38:29;;;;;;;;;;;17.50;64.50;;;;;;5043461;27;87731;-41
2023/05/26 03:40:54;;;;;;;;;;;17.50;64.50;;;;;;5050492;27;88633;-42
2023/05/26 03:43:20;;;;;;;;;;;17.50;64.60;;;;;;5052184;27;87004;-42
2023/05/26 03:45:45;;;;;;;;;;;17.50;64.50;;;;;;5051873;27;87330;-40
2023/05/26 03:48:13;;;;;;;;;;;17.50;64.60;;;;;;5047017;27;87951;-41
2023/05/26 03:50:39;;;;;;;;;;;17.40;64.50;;;;;;5042806;27;87042;-40
2023/05/26 03:53:04;;;;;;;;;;;17.40;64.50;;;;;;5053955;27;88098;-42
2023/05/26 03:55:33;;;;;;;;;;;17.40;64.60;;;;;;5046693;27;89715;-40
2023/05/26 03:57:58;;;;;;;;;;;17.40;64.50;;;;;;5046726;27;87189;-40
2023/05/26 04:00:27;;;;;;;;;;;17.40;64.40;;;;;;5042470;27;88463;-42
2023/05/26 04:02:53;;;;;;;;;;;17.40;64.50;;;;;;5050089;27;88019;-41
2023/05/26 04:05:18;;;;;;;;;;;17.40;64.50;;;;;;5045324;27;87685;-40
2023/05/26 04:07:46;;;;;;;;;;;17.30;64.40;;;;;;5045552;27;87258;-41
2023/05/26 04:10:11;;;;;;;;;;;17.40;64.50;;;;;;5050927;27;86152;-42
2023/05/26 04:12:37;;;;;;;;;;;17.40;64.50;;;;;;5051208;27;88396;-42
2023/05/26 04:15:03;;;;;;;;;;;17.40;64.50;;;;;;5040075;27;88000;-41
2023/05/26 04:17:29;;;;;;;;;;;17.40;64.50;;;;;;5048883;27;88062;-41
2023/05/26 04:19:54;;;;;;;;;;;17.40;64.50;;;;;;5050843;27;88738;-42
2023/05/26 04:22:20;;;;;;;;;;;17.30;64.40;;;;;;5051322;27;89355;-41
2023/05/26 04:24:45;;;;;;;;;;;17.30;64.50;;;;;;5051410;27;87136;-40
2023/05/26 04:27:11;;;;;;;;;;;17.30;64.50;;;;;;5039223;27;88415;-41
2023/05/26 04:29:36;;;;;;;;;;;17.30;64.50;;;;;;5050285;27;87504;-41
2023/05/26 04:32:02;;;;;;;;;;;17.30;64.50;;;;;;5051060;27;87430;-41
2023/05/26 04:34:28;;;;;;;;;;;17.30;64.60;;;;;;5052291;27;88653;-41
2023/05/26 04:36:54;;;;;;;;;;;17.30;64.60;;;;;;5032013;27;87325;-42
2023/05/26 04:39:19;;;;;;;;;;;17.30;64.50;;;;;;5051283;27;89126;-42
2023/05/26 04:41:46;;;;;;;;;;;17.30;64.50;;;;;;5052298;27;88943;-40
2023/05/26 04:44:12;;;;;;;;;;;17.30;64.50;;;;;;5037999;27;87863;-41
2023/05/26 04:46:38;;;;;;;;;;;17.30;64.50;;;;;;5043478;27;88569;-42
2023/05/26 04:49:04;;;;;;;;;;;17.30;64.50;;;;;;5050824;27;87089;-41
2023/05/26 04:51:33;;;;;;;;;;;17.20;64.50;;;;;;5050206;27;89062;-41
2023/05/26 04:53:58;;;;;;;;;;;17.30;64.60;;;;;;5039540;27;88160;-41
2023/05/26 04:56:26;;;;;;;;;;;17.30;64.50;;;;;;5045001;27;87455;-41
2023/05/26 04:58:51;;;;;;;;;;;17.20;64.50;;;;;;5050811;27;88935;-41
2023/05/26 05:01:17;;;;;;;;;;;17.30;64.60;;;;;;5049256;27;88119;-42
2023/05/26 05:03:43;;;;;;;;;;;17.20;64.50;;;;;;5042553;27;87719;-39
2023/05/26 05:06:10;;;;;;;;;;;17.30;64.60;;;;;;5047021;27;88526;-41
2023/05/26 05:08:37;;;;;;;;;;;17.20;64.50;;;;;;5052544;27;89151;-39
2023/05/26 05:11:03;;;;;;;;;;;17.30;64.60;;;;;;5052923;27;87014;-40
2023/05/26 05:13:29;;;;;;;;;;;17.20;64.50;;;;;;5036889;27;89266;-41
2023/05/26 05:15:55;;;;;;;;;;;17.20;64.60;;;;;;5042968;27;87942;-40
2023/05/26 05:18:20;;;;;;;;;;;17.20;64.60;;;;;;5053244;27;87357;-41
2023/05/26 05:20:46;;;;;;;;;;;17.30;64.60;;;;;;5047701;27;89454;-42
2023/05/26 05:23:11;;;;;;;;;;;17.20;64.60;;;;;;5044435;27;86567;-41
2023/05/26 05:25:37;;;;;;;;;;;17.20;64.70;;;;;;5050107;27;88609;-40
2023/05/26 05:28:02;;;;;;;;;;;17.20;64.70;;;;;;5054321;27;87960;-42
2023/05/26 05:30:28;;;;;;;;;;;17.20;64.80;;;;;;5050191;27;89044;-40
2023/05/26 05:32:53;;;;;;;;;;;17.20;64.80;;;;;;5041259;27;88128;-41
2023/05/26 05:35:19;;;;;;;;;;;17.30;64.80;;;;;;5047563;27;88802;-42
2023/05/26 05:37:44;;;;;;;;;;;17.20;64.70;;;;;;5054210;27;88584;-42
2023/05/26 05:40:10;;;;;;;;;;;17.30;64.70;;;;;;5049014;27;87787;-42
2023/05/26 05:42:36;;;;;;;;;;;17.20;64.80;;;;;;5048560;27;87324;-41
2023/05/26 05:45:02;;;;;;;;;;;17.20;65.00;;;;;;5049747;27;87921;-41
2023/05/26 05:47:27;;;;;;;;;;;17.20;65.10;;;;;;5057058;27;88715;-41
2023/05/26 05:49:53;;;;;;;;;;;17.20;65.20;;;;;;5053167;27;87719;-40
2023/05/26 05:52:18;;;;;;;;;;;17.30;65.10;;;;;;5048922;27;88427;-41
2023/05/26 05:54:44;;;;;;;;;;;17.30;65.10;;;;;;5052313;27;87992;-41
2023/05/26 05:57:09;;;;;;;;;;;17.30;65.10;;;;;;5053633;27;88149;-41
2023/05/26 05:59:35;;;;;;;;;;;17.20;65.20;;;;;;5045694;27;88218;-41
2023/05/26 06:02:00;;;;;;;;;;;17.20;65.20;;;;;;5046942;27;88869;-40
2023/05/26 06:04:26;;;;;;;;;;;17.20;65.50;;;;;;5051924;27;87388;-42
2023/05/26 06:06:51;;;;;;;;;;;17.20;65.50;;;;;;5053484;27;88166;-40
2023/05/26 06:09:17;;;;;;;;;;;17.30;65.50;;;;;;5042282;27;87230;-40
2023/05/26 06:11:43;;;;;;;;;;;17.30;65.30;;;;;;5052330;27;87451;-40
2023/05/26 06:14:09;;;;;;;;;;;17.30;65.40;;;;;;5054022;27;87145;-42
2023/05/26 06:16:34;;;;;;;;;;;17.30;65.60;;;;;;5051847;27;89042;-40
2023/05/26 06:19:00;;;;;;;;;;;17.30;65.60;;;;;;5044353;27;88179;-41
2023/05/26 06:21:25;;;;;;;;;;;17.30;65.70;;;;;;5046548;27;87234;-41
2023/05/26 06:23:52;;;;;;;;;;;17.30;65.60;;;;;;5055931;27;87353;-41
2023/05/26 06:26:18;;;;;;;;;;;17.40;65.60;;;;;;5050767;27;88658;-41
2023/05/26 06:28:43;;;;;;;;;;;17.40;65.70;;;;;;5048980;27;87327;-40
2023/05/26 06:31:09;;;;;;;;;;;17.30;65.60;;;;;;5046974;27;87836;-40
2023/05/26 06:33:34;;;;;;;;;;;17.30;65.70;;;;;;5055279;27;87945;-41
2023/05/26 06:36:00;;;;;;;;;;;17.30;65.80;;;;;;5053846;27;88242;-42
2023/05/26 06:38:25;;;;;;;;;;;17.30;65.80;;;;;;5048691;27;87998;-40
2023/05/26 06:40:51;;;;;;;;;;;17.30;65.90;;;;;;5049219;27;87388;-40
2023/05/26 06:43:16;;;;;;;;;;;17.30;65.90;;;;;;5052586;27;87931;-41
2023/05/26 06:45:42;;;;;;;;;;;17.40;65.80;;;;;;5048519;27;88155;-40
2023/05/26 06:48:07;;;;;;;;;;;17.40;65.80;;;;;;5037933;27;87787;-40
2023/05/26 06:50:33;;;;;;;;;;;17.40;65.70;;;;;;5044120;27;88866;-40
2023/05/26 06:52:58;;;;;;;;;;;17.40;65.70;;;;;;5053513;27;87274;-41
2023/05/26 06:55:24;;;;;;;;;;;17.40;65.80;;;;;;5051200;27;89209;-41
2023/05/26 06:57:49;;;;;;;;;;;17.40;65.80;;;;;;5039833;27;88366;-40
2023/05/26 07:00:15;;;;;;;;;;;17.40;65.80;;;;;;5046417;27;86378;-40
2023/05/26 07:02:40;;;;;;;;;;;17.40;65.90;;;;;;5055050;27;87085;-39
2023/05/26 07:05:08;;;;;;;;;;;17.30;66.10;;;;;;5045216;27;88350;-40
2023/05/26 07:07:34;;;;;;;;;;;17.40;66.00;;;;;;5045258;27;88044;-42
2023/05/26 07:09:59;;;;;;;;;;;17.40;66.00;;;;;;5051438;27;89782;-40
2023/05/26 07:12:25;;;;;;;;;;;17.40;66.20;;;;;;5052075;27;87280;-41
2023/05/26 07:14:50;;;;;;;;;;;17.40;65.90;;;;;;5052636;27;88851;-40
2023/05/26 07:17:16;;;;;;;;;;;17.40;65.90;;;;;;5046469;27;87117;-40
2023/05/26 07:19:41;;;;;;;;;;;17.40;66.00;;;;;;5051257;27;86837;-40
2023/05/26 07:22:07;;;;;;;;;;;17.40;66.20;;;;;;5052050;27;89051;-41
2023/05/26 07:24:32;;;;;;;;;;;17.40;66.10;;;;;;5041859;27;87118;-40
2023/05/26 07:26:58;;;;;;;;;;;17.40;65.90;;;;;;5042544;27;87151;-40
2023/05/26 07:29:23;;;;;;;;;;;17.40;65.90;;;;;;5051907;27;87446;-40
2023/05/26 07:31:49;;;;;;;;;;;17.40;65.90;;;;;;5052579;27;89162;-41
2023/05/26 07:34:14;;;;;;;;;;;17.40;66.90;;;;;;5046768;27;87110;-40
2023/05/26 07:36:40;;;;;;;;;;;17.40;66.90;;;;;;5041663;27;87432;-40
2023/05/26 07:39:06;;;;;;;;;;;17.40;66.40;;;;;;5051299;27;86995;-41
2023/05/26 07:41:32;;;;;;;;;;;17.40;66.70;;;;;;5052219;27;87796;-41
2023/05/26 07:43:57;;;;;;;;;;;17.50;66.80;;;;;;5044327;27;89560;-40
2023/05/26 07:46:23;;;;;;;;;;;17.50;67.10;;;;;;5043434;27;87203;-40
2023/05/26 07:48:48;;;;;;;;;;;17.50;67.00;;;;;;5053009;27;87436;-40
2023/05/26 07:51:14;;;;;;;;;;;17.50;67.20;;;;;;5032797;27;89698;-41
2023/05/26 07:53:40;;;;;;;;;;;17.50;67.00;;;;;;5050533;27;87411;-41
2023/05/26 07:56:06;;;;;;;;;;;17.50;66.70;;;;;;5054086;27;88059;-41
2023/05/26 07:58:31;;;;;;;;;;;17.50;67.40;;;;;;5052759;27;88105;-40
2023/05/26 08:00:57;;;;;;;;;;;17.50;67.60;;;;;;5054306;27;87501;-41
2023/05/26 08:03:22;;;;;;;;;;;17.50;67.40;;;;;;5050069;27;88700;-41
2023/05/26 08:05:48;;;;;;;;;;;17.50;67.40;;;;;;5054021;27;87562;-41
2023/05/26 08:08:14;;;;;;;;;;;17.50;67.70;;;;;;5051521;27;87320;-40
2023/05/26 08:10:39;;;;;;;;;;;17.50;67.60;;;;;;5052685;27;88009;-40
2023/05/26 08:13:05;;;;;;;;;;;17.50;67.50;;;;;;5051961;27;86412;-41
2023/05/26 08:15:31;;;;;;;;;;;17.50;67.60;;;;;;5053324;27;88096;-40
2023/05/26 08:17:56;;;;;;;;;;;17.50;67.50;;;;;;5050709;27;87883;-41
2023/05/26 08:20:22;;;;;;;;;;;17.60;67.50;;;;;;5054177;27;88076;-41
2023/05/26 08:22:47;;;;;;;;;;;17.60;67.90;;;;;;5047921;27;89418;-41
2023/05/26 08:25:13;;;;;;;;;;;17.50;67.80;;;;;;5051776;27;87038;-40
2023/05/26 08:27:39;;;;;;;;;;;17.60;67.80;;;;;;5051158;27;88853;-40
2023/05/26 08:30:05;;;;;;;;;;;17.60;67.70;;;;;;5052013;27;87882;-41
2023/05/26 08:32:31;;;;;;;;;;;17.60;67.70;;;;;;5051280;27;87835;-40
2023/05/26 08:34:56;;;;;;;;;;;17.60;67.80;;;;;;5053379;27;87444;-41
2023/05/26 08:37:22;;;;;;;;;;;17.70;67.70;;;;;;5049818;27;87431;-41
2023/05/26 08:39:47;;;;;;;;;;;17.60;67.60;;;;;;5049983;27;87170;-41
2023/05/26 08:42:15;;;;;;;;;;;17.60;67.80;;;;;;5056712;27;87486;-40
2023/05/26 08:44:43;;;;;;;;;;;17.70;67.70;;;;;;5049163;27;88099;-40
2023/05/26 08:47:11;;;;;;;;;;;17.70;67.70;;;;;;5053341;27;88329;-40
2023/05/26 08:49:41;;;;;;;;;;;17.70;67.70;;;;;;5049905;27;88022;-41
2023/05/26 08:52:10;;;;;;;;;;;17.70;67.50;;;;;;5046686;27;87719;-41
2023/05/26 08:54:36;;;;;;;;;;;17.70;67.70;;;;;;5051753;27;88801;-41
2023/05/26 08:57:02;;;;;;;;;;;17.70;67.70;;;;;;5049882;27;87177;-40
2023/05/26 08:59:28;;;;;;;;;;;17.70;67.70;;;;;;5052716;27;87162;-41
2023/05/26 09:01:55;;;;;;;;;;;17.80;67.90;;;;;;5050923;27;86633;-40
2023/05/26 09:04:20;;;;;;;;;;;17.80;67.80;;;;;;5055472;27;88178;-41
2023/05/26 09:06:46;;;;;;;;;;;17.80;67.90;;;;;;5051650;27;87476;-40
2023/05/26 09:09:13;;;;;;;;;;;17.80;67.90;;;;;;5051237;27;90491;-40
2023/05/26 09:11:40;;;;;;;;;;;17.80;67.90;;;;;;5048905;27;87157;-40
2023/05/26 09:14:06;;;;;;;;;;;17.80;68.00;;;;;;5048874;27;88324;-40
2023/05/26 09:16:31;;;;;;;;;;;17.80;68.00;;;;;;5056096;27;88144;-41
2023/05/26 09:19:03;;;;;;;;;;;17.80;68.00;;;;;;5052698;27;87691;-41
2023/05/26 09:21:29;;;;;;;;;;;17.80;68.60;;;;;;5049434;27;87915;-40
2023/05/26 09:23:55;;;;;;;;;;;17.90;68.10;;;;;;5046150;27;89175;-41
2023/05/26 09:26:33;;;;;;;;;;;17.90;67.80;;;;;;5059182;27;86662;-41
2023/05/26 09:29:00;;;;;;;;;;;17.90;67.90;;;;;;5049943;27;88091;-41
2023/05/26 09:31:36;;;;;;;;;;;17.90;67.90;;;;;;5055007;27;87113;-41
2023/05/26 09:34:02;;;;;;;;;;;17.90;67.80;;;;;;5054154;27;89117;-40
2023/05/26 09:36:27;;;;;;;;;;;18.00;67.80;;;;;;5053441;27;88072;-40
2023/05/26 09:38:53;;;;;;;;;;;18.00;67.80;;;;;;5053731;27;88262;-41
2023/05/26 09:41:19;;;;;;;;;;;18.00;67.70;;;;;;5054330;27;87230;-40
2023/05/26 09:43:45;;;;;;;;;;;18.00;67.80;;;;;;5052892;27;89683;-40
2023/05/26 09:46:22;;;;;;;;;;;18.00;67.70;;;;;;5056959;27;87126;-41
2023/05/26 09:48:49;;;;;;;;;;;18.10;67.70;;;;;;5053768;27;88022;-41
2023/05/26 09:51:17;;;;;;;;;;;18.10;67.60;;;;;;5053710;27;86372;-40
2023/05/26 09:53:43;;;;;;;;;;;18.10;67.50;;;;;;5050506;27;87513;-40
2023/05/26 09:56:08;;;;;;;;;;;18.20;67.60;;;;;;5054012;27;88139;-40
2023/05/26 09:58:38;;;;;;;;;;;18.20;67.50;;;;;;5052926;27;88716;-41
2023/05/26 10:01:05;;;;;;;;;;;18.20;67.50;;;;;;5054587;27;88192;-40
2023/05/26 10:03:31;;;;;;;;;;;18.20;67.30;;;;;;5052872;27;88026;-40
2023/05/26 10:05:57;;;;;;;;;;;18.20;67.30;;;;;;5054460;27;87136;-41
2023/05/26 10:08:23;;;;;;;;;;;18.30;67.40;;;;;;5052897;27;88757;-41
2023/05/26 10:10:50;;;;;;;;;;;18.30;67.40;;;;;;5054128;27;87099;-40
2023/05/26 10:13:17;;;;;;;;;;;18.30;67.70;;;;;;5053955;27;86982;-41
2023/05/26 10:15:43;;;;;;;;;;;18.30;67.90;;;;;;5053789;27;88844;-41
2023/05/26 10:18:08;;;;;;;;;;;18.30;68.10;;;;;;5053363;27;87403;-41
2023/05/26 10:20:36;;;;;;;;;;;18.30;68.20;;;;;;5054405;27;87482;-40
2023/05/26 10:23:07;;;;;;;;;;;18.30;68.30;;;;;;5050634;27;88936;-40
2023/05/26 10:25:32;;;;;;;;;;;18.30;68.30;;;;;;5052110;27;87507;-40
2023/05/26 10:27:58;;;;;;;;;;;18.30;68.30;;;;;;5054612;27;87260;-41
2023/05/26 10:30:24;;;;;;;;;;;18.30;68.20;;;;;;5056354;27;88032;-40
2023/05/26 10:32:54;;;;;;;;;;;18.30;68.10;;;;;;5053660;27;87851;-41
2023/05/26 10:35:21;;;;;;;;;;;18.30;68.00;;;;;;5052480;27;88027;-40
2023/05/26 10:37:53;;;;;;;;;;;18.30;67.90;;;;;;5054177;27;87112;-40
2023/05/26 10:40:26;;;;;;;;;;;18.30;67.70;;;;;;5052343;27;87161;-40
2023/05/26 10:42:55;;;;;;;;;;;18.30;68.10;;;;;;5055221;27;87973;-42
2023/05/26 10:45:20;;;;;;;;;;;18.30;68.00;;;;;;5052646;27;87076;-41
2023/05/26 10:47:46;;;;;;;;;;;18.30;68.00;;;;;;5054878;27;87937;-42
2023/05/26 10:50:12;;;;;;;;;;;18.30;67.90;;;;;;5034515;27;89428;-42
2023/05/26 10:52:47;;;;;;;;;;;18.30;67.80;;;;;;5057643;27;87153;-41
2023/05/26 10:55:31;;;;;;;;;;;18.30;67.80;;;;;;5051015;27;88063;-41
2023/05/26 10:58:20;;;;;;;;;;;18.40;67.80;;;;;;5051806;27;87071;-41
2023/05/26 11:00:45;;;;;;;;;;;18.40;67.80;;;;;;5044013;27;88657;-41
2023/05/26 11:03:29;;;;;;;;;;;18.40;68.10;;;;;;5054681;27;88358;-40
2023/05/26 11:05:55;;;;;;;;;;;18.40;68.20;;;;;;5055697;27;87128;-42
2023/05/26 11:08:22;;;;;;;;;;;18.40;68.10;;;;;;5052887;27;87654;-41
2023/05/26 11:11:04;;;;;;;;;;;18.40;68.20;;;;;;5050839;27;89035;-41
2023/05/26 11:13:41;;;;;;;;;;;18.40;67.90;;;;;;5044009;27;87971;-42
2023/05/26 11:16:17;;;;;;;;;;;18.50;67.90;;;;;;5056645;27;88308;-40
2023/05/26 11:18:50;;;;;;;;;;;18.50;67.80;;;;;;5052357;27;87140;-41
2023/05/26 11:21:22;;;;;;;;;;;18.50;67.70;;;;;;5047994;27;89447;-41
2023/05/26 11:23:47;;;;;;;;;;;18.50;67.70;;;;;;5048204;27;88114;-42
2023/05/26 11:26:13;;;;;;;;;;;18.50;67.70;;;;;;5051232;27;89220;-41
2023/05/26 11:28:40;;;;;;;;;;;18.50;67.70;;;;;;5054478;27;87341;-42
2023/05/26 11:31:09;;;;;;;;;;;18.50;67.60;;;;;;5051908;27;87401;-41
2023/05/26 11:33:34;;;;;;;;;;;18.50;67.70;;;;;;5048205;27;86971;-41
2023/05/26 11:36:11;;;;;;;;;;;18.50;67.70;;;;;;5058008;27;88647;-41
2023/05/26 11:38:37;;;;;;;;;;;18.50;67.80;;;;;;5049626;27;88143;-41
2023/05/26 11:41:03;;;;;;;;;;;18.50;67.80;;;;;;5051548;27;88364;-40
2023/05/26 11:43:29;;;;;;;;;;;18.60;67.70;;;;;;5051402;27;89397;-40
2023/05/26 11:45:57;;;;;;;;;;;18.60;67.80;;;;;;5054742;27;87937;-41
2023/05/26 11:48:23;;;;;;;;;;;18.60;67.70;;;;;;5052249;27;87505;-42
2023/05/26 11:50:48;;;;;;;;;;;18.60;67.60;;;;;;5054167;27;88068;-42
2023/05/26 11:53:14;;;;;;;;;;;18.60;67.50;;;;;;5051209;27;87128;-40
2023/05/26 11:55:39;;;;;;;;;;;18.60;67.50;;;;;;5050993;27;87384;-42
2023/05/26 11:58:05;;;;;;;;;;;18.60;67.50;;;;;;5057489;27;89510;-40
2023/05/26 12:00:30;;;;;;;;;;;18.70;67.40;;;;;;5051370;27;87468;-42
2023/05/26 12:02:56;;;;;;;;;;;18.70;67.40;;;;;;5053546;27;88992;-41
2023/05/26 12:05:29;;;;;;;;;;;18.70;67.40;;;;;;5051751;27;87283;-41
2023/05/26 12:08:01;;;;;;;;;;;18.70;67.40;;;;;;5047138;27;88830;-42
2023/05/26 12:10:30;;;;;;;;;;;18.70;67.30;;;;;;5047108;27;88104;-42
2023/05/26 12:12:56;;;;;;;;;;;18.80;67.30;;;;;;5051823;27;87094;-41
2023/05/26 12:15:22;;;;;;;;;;;18.80;67.20;;;;;;5053947;27;88804;-41
2023/05/26 12:17:50;;;;;;;;;;;18.80;67.30;;;;;;5051189;27;87677;-41
2023/05/26 12:20:16;;;;;;;;;;;18.80;67.20;;;;;;5057546;27;86276;-41
2023/05/26 12:22:42;;;;;;;;;;;18.90;67.30;;;;;;5051050;27;88195;-40
2023/05/26 12:25:08;;;;;;;;;;;18.90;67.30;;;;;;5049814;27;87152;-41
2023/05/26 12:27:35;;;;;;;;;;;18.90;67.20;;;;;;5054253;27;87948;-41
2023/05/26 12:30:00;;;;;;;;;;;18.90;67.10;;;;;;5046403;27;89428;-40
2023/05/26 12:32:26;;;;;;;;;;;18.90;67.10;;;;;;5046365;27;87199;-41
2023/05/26 12:34:51;;;;;;;;;;;18.90;67.00;;;;;;5054478;27;87485;-41
2023/05/26 12:37:16;;;;;;;;;;;18.90;67.00;;;;;;5051034;27;88125;-41
2023/05/26 12:39:42;;;;;;;;;;;18.90;67.00;;;;;;5053433;27;87153;-41
2023/05/26 12:42:07;;;;;;;;;;;19.00;66.90;;;;;;5051407;27;87412;-40
2023/05/26 12:44:33;;;;;;;;;;;19.00;66.90;;;;;;5053459;27;86408;-40
2023/05/26 12:46:59;;;;;;;;;;;19.00;66.80;;;;;;5052317;27;87089;-41
2023/05/26 12:49:24;;;;;;;;;;;19.00;66.90;;;;;;5051942;27;89351;-40
2023/05/26 12:51:50;;;;;;;;;;;19.10;66.80;;;;;;5051924;27;88011;-40
2023/05/26 12:54:15;;;;;;;;;;;19.10;66.80;;;;;;5051585;27;88608;-41
2023/05/26 12:56:41;;;;;;;;;;;19.10;66.80;;;;;;5049286;27;88167;-41
2023/05/26 12:59:08;;;;;;;;;;;19.10;66.70;;;;;;5053041;27;87126;-41
2023/05/26 13:01:33;;;;;;;;;;;19.10;66.70;;;;;;5051469;27;87319;-40
2023/05/26 13:03:59;;;;;;;;;;;19.10;66.70;;;;;;5055923;27;88143;-40
2023/05/26 13:06:25;;;;;;;;;;;19.20;66.70;;;;;;5050992;27;87591;-41
2023/05/26 13:08:50;;;;;;;;;;;19.20;66.70;;;;;;5053805;27;87685;-41
2023/05/26 13:11:16;;;;;;;;;;;19.20;66.60;;;;;;5045489;27;87214;-41
2023/05/26 13:13:43;;;;;;;;;;;19.20;66.50;;;;;;5053982;27;89042;-40
2023/05/26 13:16:12;;;;;;;;;;;19.30;66.60;;;;;;5045337;27;88794;-41
2023/05/26 13:18:39;;;;;;;;;;;19.30;66.60;;;;;;5046565;27;87088;-40
2023/05/26 13:21:05;;;;;;;;;;;19.30;66.50;;;;;;5053860;27;89558;-41
2023/05/26 13:23:30;;;;;;;;;;;19.30;66.50;;;;;;5049463;27;88200;-40
2023/05/26 13:25:56;;;;;;;;;;;19.30;67.00;;;;;;5052242;27;87248;-41
2023/05/26 13:28:22;;;;;;;;;;;19.30;66.50;;;;;;5052936;27;88269;-40
2023/05/26 13:30:47;;;;;;;;;;;19.30;66.50;;;;;;5050529;27;87109;-41
2023/05/26 13:33:13;;;;;;;;;;;19.40;66.40;;;;;;5053355;27;87489;-40
2023/05/26 13:35:38;;;;;;;;;;;19.40;66.40;;;;;;5049536;27;88481;-41
2023/05/26 13:38:04;;;;;;;;;;;19.40;66.30;;;;;;5052476;27;87360;-41
2023/05/26 13:40:29;;;;;;;;;;;19.40;66.20;;;;;;5050959;27;89130;-40
2023/05/26 13:42:55;;;;;;;;;;;19.50;66.20;;;;;;5048539;27;89284;-42
2023/05/26 13:45:21;;;;;;;;;;;19.50;66.10;;;;;;5053816;27;87097;-40
2023/05/26 13:47:46;;;;;;;;;;;19.50;66.10;;;;;;5051184;27;89619;-40
2023/05/26 13:50:12;;;;;;;;;;;19.60;66.00;;;;;;5051053;27;87108;-41
2023/05/26 13:52:38;;;;;;;;;;;19.60;66.10;;;;;;5054163;27;87314;-41
2023/05/26 13:55:03;;;;;;;;;;;19.60;65.90;;;;;;5053785;27;88230;-40
2023/05/26 13:57:32;;;;;;;;;;;19.60;66.00;;;;;;5052255;27;86376;-40
2023/05/26 13:59:58;;;;;;;;;;;19.60;65.80;;;;;;5053502;27;86968;-40
2023/05/26 14:02:24;;;;;;;;;;;19.60;65.70;;;;;;5055483;27;89660;-39
2023/05/26 14:04:49;;;;;;;;;;;19.60;65.90;;;;;;5052528;27;88024;-40
2023/05/26 14:07:15;;;;;;;;;;;19.70;65.80;;;;;;5058796;27;89163;-40
2023/05/26 14:09:41;;;;;;;;;;;19.70;65.90;;;;;;5052908;27;87132;-42
2023/05/26 14:12:06;;;;;;;;;;;19.80;65.90;;;;;;5055917;27;87999;-41